Martin Challenger — WDB2346 — position and weather

sailwx.info

Track history (hours):
 
Tides and Currents Weather Stations Pressure Air Temp Water Temp Dewpoint Dewpoint Depression Visibility Wind Speed Wind Dir Waves Ship Positions

Martin Challenger

Owner: MARTIN OPERATING PARTNERSHIP LP, VIDOR, TX. More information available from US FCC via Universal Licensing System and Coast Guard Vessel Documentation Center.

Last reported at 2015-Jul-03 21:29 UTC. Time now 2015-Jul-04 15:22 UTC.
Position N 29°46' W 095°06'.

Length 20 m; draft 2.9 m.

MMSI: 366874920.

Date/timePositionNaut miles runAvg speedWind from/ knotsBaromVisibWave heightAir tempDewpointWater temp
2015-Jul-03 21:29N 29°46' W 095°06'2 2.4
2015-Jul-03 20:33N 29°47' W 095°04'2 1.5
2015-Jul-03 19:32N 29°46' W 095°05'0 0.0
2015-Jul-03 18:33N 29°46' W 095°05'0 0.0
2015-Jul-03 17:29N 29°46' W 095°05'0 0.0
2015-Jul-03 16:33N 29°46' W 095°05'0 0.0
2015-Jul-03 15:29N 29°46' W 095°05'1 1.1
2015-Jul-03 14:32N 29°46' W 095°06'0 0.1
2015-Jul-03 13:08N 29°46' W 095°06'1 1.6
2015-Jul-03 12:33N 29°46' W 095°05'0 0.0
2015-Jul-03 11:33N 29°46' W 095°05'0 0.0
2015-Jul-03 10:33N 29°46' W 095°05'0 0.0
2015-Jul-03 09:33N 29°46' W 095°05'0 0.0
2015-Jul-03 08:25N 29°46' W 095°05'0 0.0
2015-Jul-03 07:28N 29°46' W 095°05'0 0.0
2015-Jul-03 06:24N 29°46' W 095°05'0 0.0
2015-Jul-03 05:30N 29°46' W 095°05'0 0.0
2015-Jul-03 04:29N 29°46' W 095°05'0 0.0
2015-Jul-03 03:33N 29°46' W 095°05'0 0.0
2015-Jul-03 02:33N 29°46' W 095°05'0 0.0
2015-Jul-03 01:32N 29°46' W 095°05'0 0.0
2015-Jul-03 00:33N 29°46' W 095°05'0 0.0
2015-Jul-02 23:33N 29°46' W 095°05'0 0.0
2015-Jul-02 22:33N 29°46' W 095°05'0 0.0
2015-Jul-02 21:33N 29°46' W 095°05'0 0.0
2015-Jul-02 20:33N 29°46' W 095°05'0 0.0
2015-Jul-02 19:33N 29°46' W 095°05'0 0.0
2015-Jul-02 18:33N 29°46' W 095°05'0 0.0
2015-Jul-02 17:33N 29°46' W 095°05'0 0.0
2015-Jul-02 07:05N 29°46' W 095°05'0 0.0
2015-Jul-01 18:28N 29°46' W 095°05'1 0.1
2015-Jul-01 14:14N 29°46' W 095°05'2 2.3
2015-Jul-01 13:33N 29°45' W 095°04'4 3.6
2015-Jul-01 12:33N 29°44' W 095°08'0 0.0
2015-Jul-01 01:12N 29°44' W 095°08'3 1.9
2015-Jun-30 23:22N 29°46' W 095°05'2 2.5
2015-Jun-30 22:26N 29°44' W 095°03'0 0.0
2015-Jun-30 21:33N 29°44' W 095°03'0 0.0
2015-Jun-30 20:33N 29°44' W 095°03'0 0.0
2015-Jun-30 19:33N 29°44' W 095°03'0 0.0
2015-Jun-30 18:33N 29°44' W 095°03'0 0.0
2015-Jun-30 17:33N 29°44' W 095°03'0 0.0
2015-Jun-30 16:33N 29°44' W 095°03'0 0.0
2015-Jun-30 15:33N 29°44' W 095°03'0 0.0
2015-Jun-30 14:33N 29°44' W 095°03'0 0.0
2015-Jun-30 13:33N 29°44' W 095°03'0 0.0
2015-Jun-30 12:33N 29°44' W 095°03'0 0.0
2015-Jun-30 11:33N 29°44' W 095°03'0 0.0
2015-Jun-30 10:33N 29°44' W 095°03'0 0.0
2015-Jun-30 09:33N 29°44' W 095°03'0 0.0
2015-Jun-30 08:33N 29°44' W 095°03'0 0.0
2015-Jun-30 07:33N 29°44' W 095°03'0 0.0
2015-Jun-30 06:33N 29°44' W 095°03'0 0.0
2015-Jun-30 05:33N 29°44' W 095°03'0 0.0
2015-Jun-30 04:33N 29°44' W 095°03'0 0.0
2015-Jun-30 03:33N 29°44' W 095°03'0 0.0
2015-Jun-30 02:33N 29°44' W 095°03'0 0.0
2015-Jun-30 01:33N 29°44' W 095°03'0 0.0
2015-Jun-30 00:33N 29°44' W 095°03'0 0.0
2015-Jun-29 23:33N 29°44' W 095°03'0 0.0
2015-Jun-29 22:33N 29°44' W 095°03'0 0.0
2015-Jun-29 21:33N 29°44' W 095°03'0 0.0
2015-Jun-29 20:33N 29°44' W 095°03'0 0.0
2015-Jun-29 19:33N 29°44' W 095°03'0 0.2
2015-Jun-29 18:33N 29°44' W 095°03'3 3.2
2015-Jun-29 17:32N 29°47' W 095°04'0 0.3
2015-Jun-29 16:32N 29°47' W 095°04'  
2015-Jun-27 04:33N 29°46' W 095°05'2 1.4
2015-Jun-27 03:22N 29°47' W 095°04'1 1.6
2015-Jun-27 02:29N 29°46' W 095°05'4 3.9
2015-Jun-27 01:32N 29°44' W 095°02'4 4.4
2015-Jun-27 00:33N 29°40' W 094°59'6 5.6
2015-Jun-26 23:33N 29°35' W 094°56'  
2015-Jun-24 06:31N 29°23' W 094°51'  
Track history (hours):
 
Tides and Currents Weather Stations Pressure Air Temp Water Temp Dewpoint Dewpoint Depression Visibility Wind Speed Wind Dir Waves Ship Positions

Martin Challenger

Owner: MARTIN OPERATING PARTNERSHIP LP, VIDOR, TX. More information available from US FCC via Universal Licensing System and Coast Guard Vessel Documentation Center.

Last reported at 2015-Jul-03 21:29 UTC. Time now 2015-Jul-04 15:22 UTC.
Position N 29°46' W 095°06'.

Length 20 m; draft 2.9 m.

MMSI: 366874920.

Date/timePositionNaut miles runAvg speedWind from/ knotsBaromVisibWave heightAir tempDewpointWater temp
2015-Jul-03 21:29N 29°46' W 095°06'2 2.4
2015-Jul-03 20:33N 29°47' W 095°04'2 1.5
2015-Jul-03 19:32N 29°46' W 095°05'0 0.0
2015-Jul-03 18:33N 29°46' W 095°05'0 0.0
2015-Jul-03 17:29N 29°46' W 095°05'0 0.0
2015-Jul-03 16:33N 29°46' W 095°05'0 0.0
2015-Jul-03 15:29N 29°46' W 095°05'1 1.1
2015-Jul-03 14:32N 29°46' W 095°06'0 0.1
2015-Jul-03 13:08N 29°46' W 095°06'1 1.6
2015-Jul-03 12:33N 29°46' W 095°05'0 0.0
2015-Jul-03 11:33N 29°46' W 095°05'0 0.0
2015-Jul-03 10:33N 29°46' W 095°05'0 0.0
2015-Jul-03 09:33N 29°46' W 095°05'0 0.0
2015-Jul-03 08:25N 29°46' W 095°05'0 0.0
2015-Jul-03 07:28N 29°46' W 095°05'0 0.0
2015-Jul-03 06:24N 29°46' W 095°05'0 0.0
2015-Jul-03 05:30N 29°46' W 095°05'0 0.0
2015-Jul-03 04:29N 29°46' W 095°05'0 0.0
2015-Jul-03 03:33N 29°46' W 095°05'0 0.0
2015-Jul-03 02:33N 29°46' W 095°05'0 0.0
2015-Jul-03 01:32N 29°46' W 095°05'0 0.0
2015-Jul-03 00:33N 29°46' W 095°05'0 0.0
2015-Jul-02 23:33N 29°46' W 095°05'0 0.0
2015-Jul-02 22:33N 29°46' W 095°05'0 0.0
2015-Jul-02 21:33N 29°46' W 095°05'0 0.0
2015-Jul-02 20:33N 29°46' W 095°05'0 0.0
2015-Jul-02 19:33N 29°46' W 095°05'0 0.0
2015-Jul-02 18:33N 29°46' W 095°05'0 0.0
2015-Jul-02 17:33N 29°46' W 095°05'0 0.0
2015-Jul-02 07:05N 29°46' W 095°05'0 0.0
2015-Jul-01 18:28N 29°46' W 095°05'1 0.1
2015-Jul-01 14:14N 29°46' W 095°05'2 2.3
2015-Jul-01 13:33N 29°45' W 095°04'4 3.6
2015-Jul-01 12:33N 29°44' W 095°08'0 0.0
2015-Jul-01 01:12N 29°44' W 095°08'3 1.9
2015-Jun-30 23:22N 29°46' W 095°05'2 2.5
2015-Jun-30 22:26N 29°44' W 095°03'0 0.0
2015-Jun-30 21:33N 29°44' W 095°03'0 0.0
2015-Jun-30 20:33N 29°44' W 095°03'0 0.0
2015-Jun-30 19:33N 29°44' W 095°03'0 0.0
2015-Jun-30 18:33N 29°44' W 095°03'0 0.0
2015-Jun-30 17:33N 29°44' W 095°03'0 0.0
2015-Jun-30 16:33N 29°44' W 095°03'0 0.0
2015-Jun-30 15:33N 29°44' W 095°03'0 0.0
2015-Jun-30 14:33N 29°44' W 095°03'0 0.0
2015-Jun-30 13:33N 29°44' W 095°03'0 0.0
2015-Jun-30 12:33N 29°44' W 095°03'0 0.0
2015-Jun-30 11:33N 29°44' W 095°03'0 0.0
2015-Jun-30 10:33N 29°44' W 095°03'0 0.0
2015-Jun-30 09:33N 29°44' W 095°03'0 0.0
2015-Jun-30 08:33N 29°44' W 095°03'0 0.0
2015-Jun-30 07:33N 29°44' W 095°03'0 0.0
2015-Jun-30 06:33N 29°44' W 095°03'0 0.0
2015-Jun-30 05:33N 29°44' W 095°03'0 0.0
2015-Jun-30 04:33N 29°44' W 095°03'0 0.0
2015-Jun-30 03:33N 29°44' W 095°03'0 0.0
2015-Jun-30 02:33N 29°44' W 095°03'0 0.0
2015-Jun-30 01:33N 29°44' W 095°03'0 0.0
2015-Jun-30 00:33N 29°44' W 095°03'0 0.0
2015-Jun-29 23:33N 29°44' W 095°03'0 0.0
2015-Jun-29 22:33N 29°44' W 095°03'0 0.0
2015-Jun-29 21:33N 29°44' W 095°03'0 0.0
2015-Jun-29 20:33N 29°44' W 095°03'0 0.0
2015-Jun-29 19:33N 29°44' W 095°03'0 0.2
2015-Jun-29 18:33N 29°44' W 095°03'3 3.2
2015-Jun-29 17:32N 29°47' W 095°04'0 0.3
2015-Jun-29 16:32N 29°47' W 095°04'  
2015-Jun-27 04:33N 29°46' W 095°05'2 1.4
2015-Jun-27 03:22N 29°47' W 095°04'1 1.6
2015-Jun-27 02:29N 29°46' W 095°05'4 3.9
2015-Jun-27 01:32N 29°44' W 095°02'4 4.4
2015-Jun-27 00:33N 29°40' W 094°59'6 5.6
2015-Jun-26 23:33N 29°35' W 094°56'  
2015-Jun-24 06:31N 29°23' W 094°51'  

Dump ship's entire track history